createdAt,value
2022-12-15T00:01:22.174Z,2.80
2022-12-15T00:06:43.634Z,3.22
2022-12-15T00:12:04.012Z,2.70
2022-12-15T00:17:24.352Z,2.90
2022-12-15T00:22:46.253Z,2.50
2022-12-15T00:28:06.401Z,2.55
2022-12-15T00:33:28.658Z,2.85
2022-12-15T00:38:43.756Z,2.70
2022-12-15T00:43:47.083Z,2.35
2022-12-15T00:48:50.343Z,2.00
2022-12-15T00:54:17.762Z,2.38
2022-12-15T00:59:38.528Z,2.17
2022-12-15T01:04:58.706Z,2.97
2022-12-15T01:10:20.490Z,2.40
2022-12-15T01:15:40.762Z,1.88
2022-12-15T01:20:43.896Z,2.05
2022-12-15T01:25:49.665Z,2.08
2022-12-15T01:30:52.894Z,2.10
2022-12-15T01:36:00.310Z,2.50
2022-12-15T01:41:07.560Z,1.88
2022-12-15T01:46:11.987Z,2.10
2022-12-15T01:51:23.606Z,2.42
2022-12-15T01:56:32.510Z,1.98
2022-12-15T02:01:38.452Z,1.70
2022-12-15T02:06:41.372Z,1.65
2022-12-15T02:12:11.029Z,1.73
2022-12-15T02:17:23.666Z,1.80
2022-12-15T02:22:37.345Z,1.40
2022-12-15T02:27:52.458Z,1.90
2022-12-15T02:33:08.230Z,1.55
2022-12-15T02:38:11.648Z,1.90
2022-12-15T02:43:14.483Z,1.70
2022-12-15T02:48:27.626Z,1.65
2022-12-15T02:53:51.137Z,1.75
2022-12-15T02:59:04.354Z,2.13
2022-12-15T03:04:10.379Z,2.63
2022-12-15T03:09:13.178Z,2.20
2022-12-15T03:14:16.069Z,1.67
2022-12-15T03:19:20.824Z,1.80
2022-12-15T03:24:23.710Z,1.50
2022-12-15T03:29:26.590Z,2.20
2022-12-15T03:34:30.836Z,1.75
2022-12-15T03:39:33.726Z,1.40
2022-12-15T03:44:36.507Z,1.85
2022-12-15T03:49:40.804Z,1.30
2022-12-15T03:54:43.641Z,1.95
2022-12-15T03:59:46.432Z,2.22
2022-12-15T04:04:50.601Z,2.05
2022-12-15T04:09:53.415Z,2.03
2022-12-15T04:14:56.224Z,1.50
2022-12-15T04:20:12.528Z,1.52
2022-12-15T04:25:35.251Z,1.25
2022-12-15T04:30:56.607Z,1.20
2022-12-15T04:36:18.663Z,1.40
2022-12-15T04:41:41.409Z,1.15
2022-12-15T04:47:01.726Z,1.27
2022-12-15T04:52:23.470Z,1.33
2022-12-15T04:57:43.795Z,1.20
2022-12-15T05:03:04.420Z,1.42
2022-12-15T05:08:26.357Z,1.10
2022-12-15T05:13:46.563Z,1.88
2022-12-15T05:19:06.961Z,1.10
2022-12-15T05:24:28.819Z,1.17
2022-12-15T05:29:49.152Z,1.48
2022-12-15T05:34:51.950Z,1.08
2022-12-15T05:39:56.152Z,1.15
2022-12-15T05:44:58.984Z,1.33
2022-12-15T05:50:01.796Z,1.13
2022-12-15T05:55:06.548Z,2.40
2022-12-15T06:00:10.465Z,0.88
2022-12-15T06:05:13.415Z,1.20
2022-12-15T06:10:17.694Z,1.00
2022-12-15T06:15:20.498Z,1.17
2022-12-15T06:20:24.287Z,1.60
2022-12-15T06:25:28.435Z,1.25
2022-12-15T06:30:31.232Z,1.17
2022-12-15T06:35:37.111Z,0.98
2022-12-15T06:40:42.021Z,1.02
2022-12-15T06:45:49.791Z,2.45
2022-12-15T06:50:53.261Z,1.10
2022-12-15T06:56:02.139Z,1.83
2022-12-15T07:01:08.013Z,1.20
2022-12-15T07:06:13.618Z,1.30
2022-12-15T07:11:17.807Z,1.15
2022-12-15T07:16:21.952Z,0.98
2022-12-15T07:21:24.867Z,1.30
2022-12-15T07:26:29.018Z,1.85
2022-12-15T07:31:32.489Z,1.33
2022-12-15T07:36:35.552Z,1.55
2022-12-15T07:41:41.209Z,1.08
2022-12-15T07:46:46.722Z,1.40
2022-12-15T07:51:49.780Z,1.42
2022-12-15T07:56:54.006Z,1.35
2022-12-15T08:01:56.956Z,2.97
2022-12-15T08:07:00.119Z,4.97
2022-12-15T08:12:04.686Z,3.20
2022-12-15T08:17:07.556Z,3.40
2022-12-15T08:22:11.509Z,3.80
2022-12-15T08:27:15.824Z,3.70
2022-12-15T08:32:18.710Z,4.65
2022-12-15T08:37:21.662Z,6.65
2022-12-15T08:42:25.807Z,10.77
2022-12-15T08:47:28.829Z,10.80
2022-12-15T08:52:31.643Z,12.60
2022-12-15T08:57:35.841Z,10.23
2022-12-15T09:02:38.778Z,9.80
2022-12-15T09:07:41.579Z,11.85
2022-12-15T09:12:46.825Z,10.95
2022-12-15T09:17:49.661Z,8.90
2022-12-15T09:22:52.460Z,8.73
2022-12-15T09:27:57.156Z,8.48
2022-12-15T09:33:00.075Z,7.97
2022-12-15T09:38:02.898Z,7.68
2022-12-15T09:43:33.376Z,7.18
2022-12-15T09:48:38.055Z,8.18
2022-12-15T09:53:56.976Z,7.03
2022-12-15T09:59:09.066Z,6.97
2022-12-15T10:04:21.952Z,7.10
2022-12-15T10:09:28.789Z,5.97
2022-12-15T10:14:38.503Z,5.72
2022-12-15T10:19:50.045Z,6.72
2022-12-15T10:25:11.144Z,7.30
2022-12-15T10:30:16.899Z,5.50
2022-12-15T10:35:23.678Z,5.38
2022-12-15T10:40:50.027Z,5.63
2022-12-15T10:46:05.125Z,6.40
2022-12-15T10:51:20.780Z,4.82
2022-12-15T10:56:32.295Z,4.20
2022-12-15T11:01:37.848Z,4.32
2022-12-15T11:06:43.111Z,4.78
2022-12-15T11:12:05.646Z,4.95
2022-12-15T11:17:09.791Z,5.30
2022-12-15T11:22:20.463Z,3.53
2022-12-15T11:27:30.113Z,3.80
2022-12-15T11:32:37.573Z,3.28
2022-12-15T11:37:42.490Z,3.45
2022-12-15T11:43:02.167Z,3.13
2022-12-15T11:48:13.360Z,2.63
2022-12-15T11:53:42.880Z,2.30
2022-12-15T11:59:10.236Z,3.10
2022-12-15T12:04:21.767Z,4.68
2022-12-15T12:09:33.955Z,3.25
2022-12-15T12:14:50.429Z,1.80
2022-12-15T12:20:00.511Z,2.15
2022-12-15T12:25:07.512Z,2.10
2022-12-15T12:30:15.565Z,2.40
2022-12-15T12:35:31.564Z,1.95
2022-12-15T12:41:03.560Z,2.38
2022-12-15T12:46:14.187Z,2.88
2022-12-15T12:51:30.539Z,2.17
2022-12-15T12:56:38.901Z,2.75
2022-12-15T13:01:42.186Z,2.35
2022-12-15T13:07:05.150Z,1.90
2022-12-15T13:12:53.541Z,2.20
2022-12-15T13:18:01.266Z,3.28
2022-12-15T13:23:37.553Z,2.55
2022-12-15T13:28:46.689Z,2.25
2022-12-15T13:33:57.320Z,3.42
2022-12-15T13:39:01.634Z,2.95
2022-12-15T13:44:16.365Z,2.28
2022-12-15T13:49:27.934Z,2.50
2022-12-15T13:54:35.216Z,2.35
2022-12-15T13:59:45.106Z,1.90
2022-12-15T14:05:22.005Z,2.65
2022-12-15T14:10:30.740Z,1.95
2022-12-15T14:15:35.035Z,2.17
2022-12-15T14:20:41.427Z,2.80
2022-12-15T14:25:53.995Z,2.60
2022-12-15T14:31:00.164Z,2.80
2022-12-15T14:36:07.089Z,2.53
2022-12-15T14:41:20.315Z,2.22
2022-12-15T14:46:26.328Z,2.38
2022-12-15T14:51:31.981Z,2.88
2022-12-15T14:56:36.219Z,2.95
2022-12-15T15:01:41.651Z,2.08
2022-12-15T15:06:50.552Z,2.45
2022-12-15T15:12:01.447Z,2.75
2022-12-15T15:17:09.602Z,2.83
2022-12-15T15:22:34.980Z,2.67
2022-12-15T15:27:40.522Z,2.83
2022-12-15T15:32:55.474Z,2.35
2022-12-15T15:38:04.805Z,2.95
2022-12-15T15:43:12.636Z,3.70
2022-12-15T15:48:22.366Z,8.75
2022-12-15T15:53:26.998Z,3.92
2022-12-15T15:58:31.610Z,3.13
2022-12-15T16:03:35.336Z,4.32
2022-12-15T16:08:38.577Z,3.30
2022-12-15T16:13:42.807Z,3.63
2022-12-15T16:18:45.926Z,3.13
2022-12-15T16:23:49.626Z,3.70
2022-12-15T16:28:54.189Z,5.63
2022-12-15T16:33:57.276Z,3.70
2022-12-15T16:39:00.245Z,3.38
2022-12-15T16:44:04.507Z,2.42
2022-12-15T16:49:07.392Z,3.20
2022-12-15T16:54:17.370Z,2.67
2022-12-15T16:59:38.623Z,3.83
2022-12-15T17:04:41.442Z,5.57
2022-12-15T17:09:44.487Z,6.65
2022-12-15T17:14:48.730Z,4.65
2022-12-15T17:20:27.379Z,6.57
2022-12-15T17:25:27.188Z,7.50
2022-12-15T17:30:41.945Z,6.78
2022-12-15T17:35:44.962Z,8.63
2022-12-15T17:40:49.138Z,6.15
2022-12-15T17:45:55.529Z,7.07
2022-12-15T17:50:58.390Z,6.22
2022-12-15T17:56:01.202Z,5.20
2022-12-15T18:01:05.583Z,5.65
2022-12-15T18:06:14.031Z,6.07
2022-12-15T18:11:17.683Z,4.68
2022-12-15T18:16:21.908Z,6.55
2022-12-15T18:21:24.906Z,4.95
2022-12-15T18:26:27.696Z,6.03
2022-12-15T18:31:31.973Z,5.13
2022-12-15T18:36:35.528Z,4.35
2022-12-15T18:41:38.407Z,4.38
2022-12-15T18:46:47.747Z,4.97
2022-12-15T18:51:51.284Z,4.57
2022-12-15T18:56:54.764Z,4.03
2022-12-15T19:01:59.332Z,3.35
2022-12-15T19:07:06.555Z,3.95
2022-12-15T19:12:20.636Z,4.95
2022-12-15T19:17:42.994Z,5.70
2022-12-15T19:22:47.791Z,4.57
2022-12-15T19:27:50.942Z,4.38
2022-12-15T19:32:55.347Z,4.57
2022-12-15T19:38:00.071Z,3.92
2022-12-15T19:43:04.254Z,4.13
2022-12-15T19:48:10.448Z,4.07
2022-12-15T19:53:17.392Z,4.97
2022-12-15T19:58:27.775Z,4.13
2022-12-15T20:03:33.515Z,4.47
2022-12-15T20:08:39.805Z,4.10
2022-12-15T20:13:42.619Z,3.60
2022-12-15T20:18:46.906Z,3.28
2022-12-15T20:23:52.594Z,4.13
2022-12-15T20:28:55.656Z,4.05
2022-12-15T20:33:59.823Z,4.35
2022-12-15T20:39:02.712Z,3.38
2022-12-15T20:44:12.923Z,3.60
2022-12-15T20:49:19.461Z,3.38
2022-12-15T20:54:23.812Z,3.50
2022-12-15T20:59:26.622Z,3.15
2022-12-15T21:04:32.615Z,3.63
2022-12-15T21:09:35.439Z,2.80
2022-12-15T21:14:38.789Z,4.63
2022-12-15T21:19:43.024Z,2.88
2022-12-15T21:24:46.480Z,4.68
2022-12-15T21:29:52.609Z,3.55
2022-12-15T21:34:57.491Z,2.95
2022-12-15T21:40:00.558Z,3.95
2022-12-15T21:45:03.331Z,2.92
2022-12-15T21:50:08.633Z,3.10
2022-12-15T21:55:16.299Z,2.88
2022-12-15T22:00:20.723Z,3.00
2022-12-15T22:05:29.252Z,3.03
2022-12-15T22:10:32.036Z,3.53
2022-12-15T22:15:34.898Z,2.95
2022-12-15T22:20:39.277Z,3.63
2022-12-15T22:25:42.558Z,3.35
2022-12-15T22:30:45.468Z,3.00
2022-12-15T22:35:50.694Z,3.40
2022-12-15T22:40:55.513Z,3.58
2022-12-15T22:45:58.605Z,3.30
2022-12-15T22:51:02.865Z,3.00
2022-12-15T22:56:11.231Z,3.00
2022-12-15T23:01:14.128Z,4.32
2022-12-15T23:06:18.405Z,4.10
2022-12-15T23:11:41.451Z,3.30
2022-12-15T23:16:45.499Z,4.22
2022-12-15T23:21:49.675Z,5.15
2022-12-15T23:26:53.182Z,4.07
2022-12-15T23:31:56.532Z,3.58
2022-12-15T23:37:00.913Z,4.43
2022-12-15T23:42:05.456Z,4.47
2022-12-15T23:47:08.939Z,3.50
2022-12-15T23:52:13.249Z,3.75
2022-12-15T23:57:17.241Z,4.88
